Salt Lake City, Utah
Traffic Map
Current Weather Conditions
Salt Lake City, Utah
Broken Clouds
Broken Clouds
28°
Feels Like: 28°
Wind Chill: 28° Ceiling: 22000
Heat Index: 28° Visibility: 10mi
Dew Point: Wind: 16mph
Humidity: 24% Direction: 170° (S)
Pressure: 29.89in Gusts: 0mph
Raw Report DataKSLC 300753Z 17014KT 10SM FEW100 SCT150 BKN220 28/06 A2989 RMK AO2 SLP053 FRQ LTGCCCG DSNT NW-N TS DSNT NW-N SH DSNT NW-N T02830061
Traffic Incident Summary
Active as of:
Severity:
Category:
InformationThere was an issue retrieving the traffic information for this location. Please try a different location or try again shortly.
Advertisements
Track Severe Weather on mobile